Big Bear Station Historical Data
Daily Summary for April 21, 2019 Units:  English    Metric   Both
Next Day »
Daily Weekly Monthly Yearly Custom
  High: Low: Average:
Temperature: 62.4 °F 30.6 °F 46.2 °F
Dew Point: 40.2 °F 7.0 °F 27.6 °F
Humidity: 88% 18% 55%
Wind Speed: 8.9mph 0.0mph 2.2mph
Wind Gust: -999.0mph - -
Wind- - West
Pressure: 23.45 in 23.39 in -
Precipitation: 0.00 in    
Historical Graphs
 
 
Tabular Data for April 21, 2019
Time Temperature Dew Point Pressure Wind Wind Speed Wind Gust Humidity Rainfall Rate (Hourly)
00:11 39.0 °F 31.1 °F 23.41 in Calm   -999.0 mph 73% 0.00 in
00:27 40.1 °F 32.1 °F 23.40 in Calm   -999.0 mph 73% 0.00 in
00:42 39.6 °F 32.3 °F 23.41 in Calm   -999.0 mph 75% 0.00 in
00:57 38.3 °F 31.7 °F 23.41 in Calm   -999.0 mph 77% 0.00 in
01:12 37.4 °F 31.5 °F 23.40 in Calm   -999.0 mph 79% 0.00 in
01:27 36.5 °F 31.2 °F 23.40 in Calm   -999.0 mph 81% 0.00 in
01:43 36.0 °F 31.3 °F 23.40 in Calm   -999.0 mph 83% 0.00 in
01:58 35.4 °F 31.0 °F 23.40 in Calm   -999.0 mph 84% 0.00 in
02:13 35.2 °F 31.4 °F 23.40 in Calm   -999.0 mph 86% 0.00 in
02:28 34.7 °F 30.9 °F 23.39 in Calm   -999.0 mph 86% 0.00 in
02:43 34.3 °F 31.1 °F 23.39 in Calm   -999.0 mph 88% 0.00 in
02:59 33.3 °F 29.9 °F 23.40 in Calm   -999.0 mph 87% 0.00 in
03:14 32.9 °F 29.5 °F 23.40 in Calm   -999.0 mph 87% 0.00 in
03:29 32.4 °F 28.1 °F 23.40 in Calm   -999.0 mph 84% 0.00 in
03:44 31.6 °F 27.3 °F 23.40 in Calm   -999.0 mph 84% 0.00 in
03:59 31.5 °F 27.8 °F 23.40 in Calm   -999.0 mph 86% 0.00 in
04:15 31.5 °F 28.1 °F 23.40 in Calm   -999.0 mph 87% 0.00 in
04:30 31.1 °F 27.4 °F 23.39 in Calm   -999.0 mph 86% 0.00 in
04:45 30.9 °F 24.5 °F 23.40 in Calm   -999.0 mph 77% 0.00 in
05:00 30.6 °F 25.8 °F 23.40 in Calm   -999.0 mph 82% 0.00 in
05:15 30.9 °F 27.5 °F 23.40 in Calm   -999.0 mph 87% 0.00 in
05:31 31.1 °F 26.0 °F 23.39 in South 4.2 mph -999.0 mph 81% 0.00 in
05:46 31.1 °F 25.7 °F 23.40 in Calm   -999.0 mph 80% 0.00 in
06:01 32.7 °F 24.7 °F 23.39 in SSE 2.7 mph -999.0 mph 72% 0.00 in
06:16 32.2 °F 26.7 °F 23.39 in Calm   -999.0 mph 80% 0.00 in
06:31 31.8 °F 26.6 °F 23.40 in Calm   -999.0 mph 81% 0.00 in
06:47 32.7 °F 25.7 °F 23.40 in South 3.2 mph -999.0 mph 75% 0.00 in
07:02 33.3 °F 23.2 °F 23.40 in SE 2.2 mph -999.0 mph 66% 0.00 in
07:17 36.0 °F 18.2 °F 23.40 in Calm   -999.0 mph 48% 0.00 in
07:32 41.5 °F 9.1 °F 23.40 in NNW 3.7 mph -999.0 mph 26% 0.00 in
07:48 46.0 °F 13.0 °F 23.40 in WNW 5.3 mph -999.0 mph 26% 0.00 in
08:03 46.9 °F 10.0 °F 23.40 in NW 6.3 mph -999.0 mph 22% 0.00 in
08:19 48.0 °F 8.8 °F 23.40 in West 6.3 mph -999.0 mph 20% 0.00 in
08:34 48.6 °F 7.0 °F 23.40 in WNW 3.7 mph -999.0 mph 18% 0.00 in
08:50 50.0 °F 10.5 °F 23.39 in NW 8.9 mph -999.0 mph 20% 0.00 in
09:05 49.8 °F 10.3 °F 23.40 in North 8.3 mph -999.0 mph 20% 0.00 in
09:21 50.2 °F 11.7 °F 23.40 in WNW 5.3 mph -999.0 mph 21% 0.00 in
09:36 49.8 °F 12.4 °F 23.41 in NNW 3.7 mph -999.0 mph 22% 0.00 in
09:51 49.8 °F 13.4 °F 23.42 in North 3.7 mph -999.0 mph 23% 0.00 in
10:07 50.2 °F 14.8 °F 23.42 in NE 2.7 mph -999.0 mph 24% 0.00 in
10:22 50.7 °F 14.2 °F 23.42 in Calm   -999.0 mph 23% 0.00 in
10:37 51.6 °F 15.0 °F 23.42 in NE 1.1 mph -999.0 mph 23% 0.00 in
10:53 54.3 °F 16.2 °F 23.43 in SSE 1.1 mph -999.0 mph 22% 0.00 in
11:08 56.5 °F 19.1 °F 23.43 in NNE 5.8 mph -999.0 mph 23% 0.00 in
11:23 57.4 °F 18.8 °F 23.43 in NNW 5.3 mph -999.0 mph 22% 0.00 in
11:38 57.6 °F 23.8 °F 23.42 in NNW 5.8 mph -999.0 mph 27% 0.00 in
11:54 57.7 °F 23.0 °F 23.43 in NW 4.7 mph -999.0 mph 26% 0.00 in
12:09 58.8 °F 24.9 °F 23.42 in NNW 3.7 mph -999.0 mph 27% 0.00 in
12:25 59.2 °F 25.2 °F 23.43 in NNW 2.7 mph -999.0 mph 27% 0.00 in
12:40 60.1 °F 26.0 °F 23.43 in WNW 6.3 mph -999.0 mph 27% 0.00 in
12:55 60.8 °F 27.5 °F 23.42 in NW 5.8 mph -999.0 mph 28% 0.00 in
13:11 60.1 °F 22.2 °F 23.42 in East 2.7 mph -999.0 mph 23% 0.00 in
13:26 61.2 °F 28.7 °F 23.42 in North 4.7 mph -999.0 mph 29% 0.00 in
13:41 61.2 °F 29.5 °F 23.42 in NNW 5.8 mph -999.0 mph 30% 0.00 in
13:57 61.5 °F 28.1 °F 23.42 in NNW 3.7 mph -999.0 mph 28% 0.00 in
14:12 61.3 °F 31.9 °F 23.42 in NW 5.8 mph -999.0 mph 33% 0.00 in
14:27 61.5 °F 29.8 °F 23.42 in NNW 5.8 mph -999.0 mph 30% 0.00 in
14:43 61.7 °F 29.9 °F 23.42 in NE 4.2 mph -999.0 mph 30% 0.00 in
14:58 61.5 °F 30.6 °F 23.42 in NW 5.3 mph -999.0 mph 31% 0.00 in
15:14 60.6 °F 29.8 °F 23.42 in NNW 4.2 mph -999.0 mph 31% 0.00 in
15:29 59.0 °F 29.9 °F 23.42 in NW 4.2 mph -999.0 mph 33% 0.00 in
15:44 59.4 °F 29.5 °F 23.42 in WSW 3.7 mph -999.0 mph 32% 0.00 in
15:59 59.0 °F 29.9 °F 23.42 in WNW 4.7 mph -999.0 mph 33% 0.00 in
16:14 58.5 °F 30.9 °F 23.41 in NW 3.7 mph -999.0 mph 35% 0.00 in
16:30 57.7 °F 28.8 °F 23.42 in NW 2.2 mph -999.0 mph 33% 0.00 in
16:45 59.5 °F 32.5 °F 23.42 in NNW 2.7 mph -999.0 mph 36% 0.00 in
17:00 62.4 °F 32.1 °F 23.42 in WNW 5.8 mph -999.0 mph 32% 0.00 in
17:15 61.7 °F 32.3 °F 23.42 in NW 2.2 mph -999.0 mph 33% 0.00 in
17:30 61.9 °F 33.2 °F 23.42 in NNW 4.7 mph -999.0 mph 34% 0.00 in
17:46 60.3 °F 33.9 °F 23.42 in SW 3.2 mph -999.0 mph 37% 0.00 in
18:01 61.2 °F 37.3 °F 23.42 in NW 4.2 mph -999.0 mph 41% 0.00 in
18:16 59.7 °F 38.3 °F 23.41 in NW 4.7 mph -999.0 mph 45% 0.00 in
18:32 53.8 °F 40.2 °F 23.41 in NNW 1.7 mph -999.0 mph 60% 0.00 in
18:47 51.3 °F 35.7 °F 23.42 in WNW 3.2 mph -999.0 mph 55% 0.00 in
19:02 49.6 °F 36.7 °F 23.41 in Calm   -999.0 mph 61% 0.00 in
19:18 48.7 °F 37.5 °F 23.42 in Calm   -999.0 mph 65% 0.00 in
19:33 47.5 °F 36.3 °F 23.42 in Calm   -999.0 mph 65% 0.00 in
19:48 46.8 °F 36.4 °F 23.42 in NNW 1.7 mph -999.0 mph 67% 0.00 in
20:03 45.9 °F 37.0 °F 23.43 in Calm   -999.0 mph 71% 0.00 in
20:18 45.0 °F 37.2 °F 23.43 in Calm   -999.0 mph 74% 0.00 in
20:34 43.9 °F 35.8 °F 23.43 in Calm   -999.0 mph 73% 0.00 in
20:49 42.3 °F 36.3 °F 23.43 in Calm   -999.0 mph 79% 0.00 in
21:05 42.1 °F 36.4 °F 23.44 in Calm   -999.0 mph 80% 0.00 in
21:20 41.0 °F 35.6 °F 23.45 in Calm   -999.0 mph 81% 0.00 in
21:35 40.6 °F 35.2 °F 23.45 in Calm   -999.0 mph 81% 0.00 in
21:50 39.6 °F 34.6 °F 23.45 in Calm   -999.0 mph 82% 0.00 in
22:05 38.7 °F 34.0 °F 23.45 in Calm   -999.0 mph 83% 0.00 in
22:21 38.1 °F 33.7 °F 23.45 in Calm   -999.0 mph 84% 0.00 in
22:36 37.6 °F 33.2 °F 23.45 in Calm   -999.0 mph 84% 0.00 in
22:51 37.2 °F 33.1 °F 23.45 in Calm   -999.0 mph 85% 0.00 in
23:06 36.9 °F 32.8 °F 23.45 in Calm   -999.0 mph 85% 0.00 in
23:21 36.3 °F 32.5 °F 23.45 in Calm   -999.0 mph 86% 0.00 in
23:37 35.8 °F 32.0 °F 23.45 in Calm   -999.0 mph 86% 0.00 in
23:52 35.6 °F 31.8 °F 23.45 in Calm   -999.0 mph 86% 0.00 in
Big Bear CA Weather